sensor_id;sensor_type;location;lat;lon;timestamp;P1;durP1;ratioP1;P2;durP2;ratioP2
1885;SDS011;943;51.568;6.998;2022-09-03T00:01:40;3.23;;;2.00;;
1885;SDS011;943;51.568;6.998;2022-09-03T00:04:26;4.00;;;2.00;;
1885;SDS011;943;51.568;6.998;2022-09-03T00:07:16;4.80;;;2.00;;
1885;SDS011;943;51.568;6.998;2022-09-03T00:10:10;6.90;;;1.97;;
1885;SDS011;943;51.568;6.998;2022-09-03T00:13:05;6.20;;;2.07;;
1885;SDS011;943;51.568;6.998;2022-09-03T00:15:35;3.70;;;2.07;;
1885;SDS011;943;51.568;6.998;2022-09-03T00:18:13;3.17;;;2.03;;
1885;SDS011;943;51.568;6.998;2022-09-03T00:20:54;5.97;;;2.40;;
1885;SDS011;943;51.568;6.998;2022-09-03T00:23:51;6.73;;;2.20;;
1885;SDS011;943;51.568;6.998;2022-09-03T00:26:24;4.87;;;1.87;;
1885;SDS011;943;51.568;6.998;2022-09-03T00:29:02;3.13;;;1.93;;
1885;SDS011;943;51.568;6.998;2022-09-03T00:31:55;4.87;;;1.70;;
1885;SDS011;943;51.568;6.998;2022-09-03T00:34:50;4.10;;;1.87;;
1885;SDS011;943;51.568;6.998;2022-09-03T00:37:28;7.50;;;2.43;;
1885;SDS011;943;51.568;6.998;2022-09-03T00:40:04;4.80;;;2.20;;
1885;SDS011;943;51.568;6.998;2022-09-03T00:43:39;3.73;;;2.10;;
1885;SDS011;943;51.568;6.998;2022-09-03T00:47:03;3.23;;;1.80;;
1885;SDS011;943;51.568;6.998;2022-09-03T00:53:19;3.00;;;1.90;;
1885;SDS011;943;51.568;6.998;2022-09-03T00:59:42;4.77;;;2.27;;
1885;SDS011;943;51.568;6.998;2022-09-03T01:02:46;2.90;;;1.97;;
1885;SDS011;943;51.568;6.998;2022-09-03T01:15:15;4.43;;;1.70;;
1885;SDS011;943;51.568;6.998;2022-09-03T01:32:11;3.80;;;1.70;;
1885;SDS011;943;51.568;6.998;2022-09-03T01:51:22;4.20;;;2.00;;
1885;SDS011;943;51.568;6.998;2022-09-03T02:00:21;3.50;;;2.00;;
1885;SDS011;943;51.568;6.998;2022-09-03T02:02:53;2.63;;;1.73;;
1885;SDS011;943;51.568;6.998;2022-09-03T02:05:21;3.10;;;1.50;;
1885;SDS011;943;51.568;6.998;2022-09-03T02:10:39;2.80;;;1.47;;
1885;SDS011;943;51.568;6.998;2022-09-03T02:14:01;4.63;;;1.87;;
1885;SDS011;943;51.568;6.998;2022-09-03T02:16:27;4.03;;;1.77;;
1885;SDS011;943;51.568;6.998;2022-09-03T02:19:01;4.30;;;1.93;;
1885;SDS011;943;51.568;6.998;2022-09-03T02:21:48;5.80;;;2.27;;
1885;SDS011;943;51.568;6.998;2022-09-03T02:24:22;3.03;;;1.83;;
1885;SDS011;943;51.568;6.998;2022-09-03T02:26:53;5.90;;;2.00;;
1885;SDS011;943;51.568;6.998;2022-09-03T02:29:22;5.47;;;2.50;;
1885;SDS011;943;51.568;6.998;2022-09-03T02:31:53;4.03;;;1.90;;
1885;SDS011;943;51.568;6.998;2022-09-03T02:34:20;2.63;;;1.73;;
1885;SDS011;943;51.568;6.998;2022-09-03T02:36:48;3.70;;;2.27;;
1885;SDS011;943;51.568;6.998;2022-09-03T02:39:15;2.27;;;1.47;;
1885;SDS011;943;51.568;6.998;2022-09-03T02:41:43;2.87;;;1.43;;
1885;SDS011;943;51.568;6.998;2022-09-03T02:44:26;3.53;;;1.53;;
1885;SDS011;943;51.568;6.998;2022-09-03T02:47:04;3.47;;;2.13;;
1885;SDS011;943;51.568;6.998;2022-09-03T02:49:34;2.60;;;1.43;;
1885;SDS011;943;51.568;6.998;2022-09-03T02:52:03;5.70;;;2.00;;
1885;SDS011;943;51.568;6.998;2022-09-03T02:54:37;3.20;;;1.57;;
1885;SDS011;943;51.568;6.998;2022-09-03T02:57:06;2.67;;;1.50;;
1885;SDS011;943;51.568;6.998;2022-09-03T02:59:39;3.37;;;1.63;;
1885;SDS011;943;51.568;6.998;2022-09-03T03:02:16;3.30;;;1.90;;
1885;SDS011;943;51.568;6.998;2022-09-03T03:04:44;2.50;;;1.77;;
1885;SDS011;943;51.568;6.998;2022-09-03T03:07:11;4.50;;;1.97;;
1885;SDS011;943;51.568;6.998;2022-09-03T03:09:39;3.30;;;1.77;;
1885;SDS011;943;51.568;6.998;2022-09-03T03:12:06;4.07;;;2.00;;
1885;SDS011;943;51.568;6.998;2022-09-03T03:14:35;3.40;;;1.67;;
1885;SDS011;943;51.568;6.998;2022-09-03T03:17:03;5.40;;;2.20;;
1885;SDS011;943;51.568;6.998;2022-09-03T03:19:31;5.70;;;1.93;;
1885;SDS011;943;51.568;6.998;2022-09-03T03:21:58;3.47;;;1.60;;
1885;SDS011;943;51.568;6.998;2022-09-03T03:24:26;3.30;;;1.70;;
1885;SDS011;943;51.568;6.998;2022-09-03T03:26:54;4.20;;;1.87;;
1885;SDS011;943;51.568;6.998;2022-09-03T03:29:23;2.80;;;1.97;;
1885;SDS011;943;51.568;6.998;2022-09-03T03:31:51;4.87;;;1.40;;
1885;SDS011;943;51.568;6.998;2022-09-03T03:34:20;3.60;;;2.00;;
1885;SDS011;943;51.568;6.998;2022-09-03T03:36:49;2.90;;;1.60;;
1885;SDS011;943;51.568;6.998;2022-09-03T03:39:22;3.13;;;2.23;;
1885;SDS011;943;51.568;6.998;2022-09-03T03:41:50;4.73;;;2.10;;
1885;SDS011;943;51.568;6.998;2022-09-03T03:44:17;3.80;;;1.97;;
1885;SDS011;943;51.568;6.998;2022-09-03T03:46:45;2.77;;;1.93;;
1885;SDS011;943;51.568;6.998;2022-09-03T03:49:13;3.33;;;2.20;;
1885;SDS011;943;51.568;6.998;2022-09-03T03:51:41;3.63;;;2.00;;
1885;SDS011;943;51.568;6.998;2022-09-03T03:54:09;3.50;;;1.50;;
1885;SDS011;943;51.568;6.998;2022-09-03T03:56:42;4.80;;;1.83;;
1885;SDS011;943;51.568;6.998;2022-09-03T03:59:20;4.00;;;2.40;;
1885;SDS011;943;51.568;6.998;2022-09-03T04:01:48;8.07;;;2.00;;
1885;SDS011;943;51.568;6.998;2022-09-03T04:04:16;3.23;;;2.10;;
1885;SDS011;943;51.568;6.998;2022-09-03T04:06:43;4.87;;;1.90;;
1885;SDS011;943;51.568;6.998;2022-09-03T04:09:11;3.27;;;1.90;;
1885;SDS011;943;51.568;6.998;2022-09-03T04:11:38;3.33;;;2.13;;
1885;SDS011;943;51.568;6.998;2022-09-03T04:14:06;3.30;;;1.93;;
1885;SDS011;943;51.568;6.998;2022-09-03T04:16:33;3.40;;;1.90;;
1885;SDS011;943;51.568;6.998;2022-09-03T04:19:01;3.60;;;2.10;;
1885;SDS011;943;51.568;6.998;2022-09-03T04:21:29;3.57;;;1.77;;
1885;SDS011;943;51.568;6.998;2022-09-03T04:23:57;3.97;;;2.10;;
1885;SDS011;943;51.568;6.998;2022-09-03T04:26:25;3.03;;;1.90;;
1885;SDS011;943;51.568;6.998;2022-09-03T04:29:02;2.77;;;1.90;;
1885;SDS011;943;51.568;6.998;2022-09-03T04:31:35;6.00;;;2.20;;
1885;SDS011;943;51.568;6.998;2022-09-03T04:34:05;5.30;;;2.23;;
1885;SDS011;943;51.568;6.998;2022-09-03T04:36:32;4.37;;;2.20;;
1885;SDS011;943;51.568;6.998;2022-09-03T04:39:00;3.97;;;2.20;;
1885;SDS011;943;51.568;6.998;2022-09-03T04:41:29;3.37;;;2.17;;
1885;SDS011;943;51.568;6.998;2022-09-03T04:43:58;2.97;;;1.83;;
1885;SDS011;943;51.568;6.998;2022-09-03T04:46:27;4.13;;;2.57;;
1885;SDS011;943;51.568;6.998;2022-09-03T04:48:59;3.80;;;1.80;;
1885;SDS011;943;51.568;6.998;2022-09-03T04:51:28;3.70;;;2.00;;
1885;SDS011;943;51.568;6.998;2022-09-03T04:54:00;5.90;;;2.00;;
1885;SDS011;943;51.568;6.998;2022-09-03T04:56:30;4.30;;;1.90;;
1885;SDS011;943;51.568;6.998;2022-09-03T04:59:02;4.33;;;1.93;;
1885;SDS011;943;51.568;6.998;2022-09-03T05:01:35;4.97;;;2.17;;
1885;SDS011;943;51.568;6.998;2022-09-03T05:04:06;6.50;;;1.80;;
1885;SDS011;943;51.568;6.998;2022-09-03T05:06:35;3.07;;;1.93;;
1885;SDS011;943;51.568;6.998;2022-09-03T05:09:03;3.20;;;2.00;;
1885;SDS011;943;51.568;6.998;2022-09-03T05:11:32;3.93;;;2.00;;
1885;SDS011;943;51.568;6.998;2022-09-03T05:14:01;4.10;;;2.23;;
1885;SDS011;943;51.568;6.998;2022-09-03T05:16:31;7.23;;;1.70;;
1885;SDS011;943;51.568;6.998;2022-09-03T05:19:00;6.40;;;1.83;;
1885;SDS011;943;51.568;6.998;2022-09-03T05:21:29;3.50;;;1.80;;
1885;SDS011;943;51.568;6.998;2022-09-03T05:23:58;3.53;;;2.00;;
1885;SDS011;943;51.568;6.998;2022-09-03T05:26:28;3.80;;;2.20;;
1885;SDS011;943;51.568;6.998;2022-09-03T05:29:03;5.07;;;1.87;;
1885;SDS011;943;51.568;6.998;2022-09-03T05:31:34;3.50;;;2.00;;
1885;SDS011;943;51.568;6.998;2022-09-03T05:34:05;3.63;;;1.70;;
1885;SDS011;943;51.568;6.998;2022-09-03T05:36:41;4.00;;;2.40;;
1885;SDS011;943;51.568;6.998;2022-09-03T05:39:09;13.03;;;3.10;;
1885;SDS011;943;51.568;6.998;2022-09-03T05:41:36;3.73;;;1.97;;
1885;SDS011;943;51.568;6.998;2022-09-03T05:44:04;3.57;;;2.03;;
1885;SDS011;943;51.568;6.998;2022-09-03T05:46:32;3.60;;;1.80;;
1885;SDS011;943;51.568;6.998;2022-09-03T05:49:03;5.57;;;2.30;;
1885;SDS011;943;51.568;6.998;2022-09-03T05:51:34;3.53;;;2.20;;
1885;SDS011;943;51.568;6.998;2022-09-03T05:54:08;3.90;;;1.87;;
1885;SDS011;943;51.568;6.998;2022-09-03T05:56:37;3.17;;;1.80;;
1885;SDS011;943;51.568;6.998;2022-09-03T05:59:07;3.13;;;2.00;;
1885;SDS011;943;51.568;6.998;2022-09-03T06:01:38;3.73;;;2.00;;
1885;SDS011;943;51.568;6.998;2022-09-03T06:04:16;5.00;;;2.07;;
1885;SDS011;943;51.568;6.998;2022-09-03T06:06:45;4.00;;;2.17;;
1885;SDS011;943;51.568;6.998;2022-09-03T06:09:17;8.57;;;2.43;;
1885;SDS011;943;51.568;6.998;2022-09-03T06:11:49;5.20;;;2.20;;
1885;SDS011;943;51.568;6.998;2022-09-03T06:14:17;4.30;;;1.87;;
1885;SDS011;943;51.568;6.998;2022-09-03T06:16:47;3.40;;;1.87;;
1885;SDS011;943;51.568;6.998;2022-09-03T06:19:17;3.70;;;2.10;;
1885;SDS011;943;51.568;6.998;2022-09-03T06:21:46;3.00;;;1.90;;
1885;SDS011;943;51.568;6.998;2022-09-03T06:24:15;3.27;;;2.10;;
1885;SDS011;943;51.568;6.998;2022-09-03T06:26:54;3.20;;;2.20;;
1885;SDS011;943;51.568;6.998;2022-09-03T06:29:23;3.37;;;2.03;;
1885;SDS011;943;51.568;6.998;2022-09-03T06:31:50;6.53;;;2.63;;
1885;SDS011;943;51.568;6.998;2022-09-03T06:34:18;3.90;;;2.60;;
1885;SDS011;943;51.568;6.998;2022-09-03T06:36:47;2.77;;;1.83;;
1885;SDS011;943;51.568;6.998;2022-09-03T06:39:19;3.60;;;1.90;;
1885;SDS011;943;51.568;6.998;2022-09-03T06:41:47;3.53;;;1.80;;
1885;SDS011;943;51.568;6.998;2022-09-03T06:44:17;3.73;;;2.13;;
1885;SDS011;943;51.568;6.998;2022-09-03T06:46:44;5.30;;;1.70;;
1885;SDS011;943;51.568;6.998;2022-09-03T06:49:12;4.93;;;2.13;;
1885;SDS011;943;51.568;6.998;2022-09-03T06:51:40;5.20;;;1.87;;
1885;SDS011;943;51.568;6.998;2022-09-03T06:54:10;3.63;;;1.50;;
1885;SDS011;943;51.568;6.998;2022-09-03T06:56:39;6.50;;;1.80;;
1885;SDS011;943;51.568;6.998;2022-09-03T06:59:11;4.47;;;1.83;;
1885;SDS011;943;51.568;6.998;2022-09-03T07:01:41;5.43;;;1.60;;
1885;SDS011;943;51.568;6.998;2022-09-03T07:04:12;4.17;;;1.70;;
1885;SDS011;943;51.568;6.998;2022-09-03T07:06:45;3.20;;;1.60;;
1885;SDS011;943;51.568;6.998;2022-09-03T07:09:13;3.00;;;1.90;;
1885;SDS011;943;51.568;6.998;2022-09-03T07:11:43;3.67;;;1.70;;
1885;SDS011;943;51.568;6.998;2022-09-03T07:14:14;8.10;;;1.83;;
1885;SDS011;943;51.568;6.998;2022-09-03T07:16:48;6.50;;;1.70;;
1885;SDS011;943;51.568;6.998;2022-09-03T07:19:16;3.77;;;1.63;;
1885;SDS011;943;51.568;6.998;2022-09-03T07:21:45;5.03;;;1.90;;
1885;SDS011;943;51.568;6.998;2022-09-03T07:24:16;5.80;;;1.70;;
1885;SDS011;943;51.568;6.998;2022-09-03T07:26:47;2.77;;;1.70;;
1885;SDS011;943;51.568;6.998;2022-09-03T07:29:17;2.47;;;1.33;;
1885;SDS011;943;51.568;6.998;2022-09-03T07:31:48;3.10;;;1.77;;
1885;SDS011;943;51.568;6.998;2022-09-03T07:34:18;4.30;;;1.70;;
1885;SDS011;943;51.568;6.998;2022-09-03T07:36:52;3.20;;;1.70;;
1885;SDS011;943;51.568;6.998;2022-09-03T07:39:20;3.00;;;1.80;;
1885;SDS011;943;51.568;6.998;2022-09-03T07:41:48;3.83;;;1.90;;
1885;SDS011;943;51.568;6.998;2022-09-03T07:44:16;3.43;;;1.90;;
1885;SDS011;943;51.568;6.998;2022-09-03T07:46:45;3.90;;;1.73;;
1885;SDS011;943;51.568;6.998;2022-09-03T07:49:17;2.90;;;1.80;;
1885;SDS011;943;51.568;6.998;2022-09-03T07:51:47;2.97;;;1.60;;
1885;SDS011;943;51.568;6.998;2022-09-03T07:54:18;4.17;;;1.40;;
1885;SDS011;943;51.568;6.998;2022-09-03T07:56:47;2.80;;;1.43;;
1885;SDS011;943;51.568;6.998;2022-09-03T07:59:15;2.70;;;1.47;;
1885;SDS011;943;51.568;6.998;2022-09-03T08:01:43;2.73;;;1.67;;
1885;SDS011;943;51.568;6.998;2022-09-03T08:04:10;5.03;;;1.90;;
1885;SDS011;943;51.568;6.998;2022-09-03T08:06:38;4.23;;;2.03;;
1885;SDS011;943;51.568;6.998;2022-09-03T08:09:08;4.10;;;1.80;;
1885;SDS011;943;51.568;6.998;2022-09-03T08:11:39;4.27;;;1.70;;
1885;SDS011;943;51.568;6.998;2022-09-03T08:14:10;5.20;;;1.67;;
1885;SDS011;943;51.568;6.998;2022-09-03T08:16:40;3.53;;;1.50;;
1885;SDS011;943;51.568;6.998;2022-09-03T08:19:15;2.20;;;1.10;;
1885;SDS011;943;51.568;6.998;2022-09-03T08:21:44;2.17;;;1.33;;
1885;SDS011;943;51.568;6.998;2022-09-03T08:24:13;2.73;;;1.60;;
1885;SDS011;943;51.568;6.998;2022-09-03T08:26:47;7.33;;;1.50;;
1885;SDS011;943;51.568;6.998;2022-09-03T08:29:18;2.70;;;1.60;;
1885;SDS011;943;51.568;6.998;2022-09-03T08:31:47;6.30;;;1.80;;
1885;SDS011;943;51.568;6.998;2022-09-03T08:34:15;3.60;;;1.13;;
1885;SDS011;943;51.568;6.998;2022-09-03T08:36:43;3.33;;;1.30;;
1885;SDS011;943;51.568;6.998;2022-09-03T08:39:13;5.60;;;1.30;;
1885;SDS011;943;51.568;6.998;2022-09-03T08:45:00;3.80;;;1.50;;
1885;SDS011;943;51.568;6.998;2022-09-03T08:47:43;4.57;;;1.30;;
1885;SDS011;943;51.568;6.998;2022-09-03T08:50:31;4.47;;;1.57;;
1885;SDS011;943;51.568;6.998;2022-09-03T08:53:20;2.40;;;1.30;;
1885;SDS011;943;51.568;6.998;2022-09-03T08:56:29;4.53;;;1.73;;
1885;SDS011;943;51.568;6.998;2022-09-03T08:59:05;3.07;;;1.33;;
1885;SDS011;943;51.568;6.998;2022-09-03T09:07:31;4.27;;;1.60;;
1885;SDS011;943;51.568;6.998;2022-09-03T09:10:47;4.23;;;1.33;;
1885;SDS011;943;51.568;6.998;2022-09-03T09:17:18;2.43;;;1.50;;
1885;SDS011;943;51.568;6.998;2022-09-03T09:23:04;3.50;;;1.70;;
1885;SDS011;943;51.568;6.998;2022-09-03T09:25:47;2.50;;;1.40;;
1885;SDS011;943;51.568;6.998;2022-09-03T09:28:24;2.77;;;1.40;;
1885;SDS011;943;51.568;6.998;2022-09-03T09:31:03;2.83;;;1.87;;
1885;SDS011;943;51.568;6.998;2022-09-03T09:33:37;4.77;;;1.50;;
1885;SDS011;943;51.568;6.998;2022-09-03T09:36:06;3.13;;;1.33;;
1885;SDS011;943;51.568;6.998;2022-09-03T09:38:42;3.13;;;1.53;;
1885;SDS011;943;51.568;6.998;2022-09-03T09:41:18;2.60;;;1.60;;
1885;SDS011;943;51.568;6.998;2022-09-03T09:43:58;3.57;;;1.60;;
1885;SDS011;943;51.568;6.998;2022-09-03T09:46:37;3.30;;;1.23;;
1885;SDS011;943;51.568;6.998;2022-09-03T09:49:21;4.03;;;1.40;;
1885;SDS011;943;51.568;6.998;2022-09-03T09:52:03;3.50;;;1.33;;
1885;SDS011;943;51.568;6.998;2022-09-03T09:54:41;3.90;;;1.80;;
1885;SDS011;943;51.568;6.998;2022-09-03T09:57:45;2.80;;;1.77;;
1885;SDS011;943;51.568;6.998;2022-09-03T10:00:07;3.03;;;2.03;;
1885;SDS011;943;51.568;6.998;2022-09-03T10:02:52;3.47;;;1.90;;
1885;SDS011;943;51.568;6.998;2022-09-03T10:05:24;5.10;;;1.97;;
1885;SDS011;943;51.568;6.998;2022-09-03T10:08:22;2.87;;;1.40;;
1885;SDS011;943;51.568;6.998;2022-09-03T10:10:50;3.83;;;1.80;;
1885;SDS011;943;51.568;6.998;2022-09-03T10:13:20;3.83;;;1.97;;
1885;SDS011;943;51.568;6.998;2022-09-03T10:19:18;6.70;;;2.37;;
1885;SDS011;943;51.568;6.998;2022-09-03T10:26:08;4.30;;;1.80;;
1885;SDS011;943;51.568;6.998;2022-09-03T10:28:49;5.27;;;2.13;;
1885;SDS011;943;51.568;6.998;2022-09-03T10:41:09;7.07;;;1.80;;
1885;SDS011;943;51.568;6.998;2022-09-03T10:51:15;3.10;;;1.43;;
1885;SDS011;943;51.568;6.998;2022-09-03T11:00:52;2.67;;;1.63;;
1885;SDS011;943;51.568;6.998;2022-09-03T11:04:19;6.40;;;2.17;;
1885;SDS011;943;51.568;6.998;2022-09-03T11:07:42;3.33;;;1.77;;
1885;SDS011;943;51.568;6.998;2022-09-03T11:10:40;3.43;;;1.70;;
1885;SDS011;943;51.568;6.998;2022-09-03T11:13:35;7.40;;;2.37;;
1885;SDS011;943;51.568;6.998;2022-09-03T11:16:44;2.60;;;1.80;;
1885;SDS011;943;51.568;6.998;2022-09-03T11:19:33;3.10;;;2.07;;
1885;SDS011;943;51.568;6.998;2022-09-03T11:22:21;3.17;;;1.87;;
1885;SDS011;943;51.568;6.998;2022-09-03T11:24:53;3.70;;;2.07;;
1885;SDS011;943;51.568;6.998;2022-09-03T11:30:08;3.77;;;1.93;;
1885;SDS011;943;51.568;6.998;2022-09-03T11:32:57;5.27;;;2.00;;
1885;SDS011;943;51.568;6.998;2022-09-03T11:35:38;3.23;;;1.60;;
1885;SDS011;943;51.568;6.998;2022-09-03T11:40:55;3.20;;;1.50;;
1885;SDS011;943;51.568;6.998;2022-09-03T11:43:41;3.33;;;1.90;;
1885;SDS011;943;51.568;6.998;2022-09-03T11:46:11;4.43;;;2.20;;
1885;SDS011;943;51.568;6.998;2022-09-03T11:48:52;2.70;;;1.53;;
1885;SDS011;943;51.568;6.998;2022-09-03T11:51:37;3.20;;;1.93;;
1885;SDS011;943;51.568;6.998;2022-09-03T11:56:48;3.03;;;2.03;;
1885;SDS011;943;51.568;6.998;2022-09-03T12:00:09;2.30;;;1.60;;
1885;SDS011;943;51.568;6.998;2022-09-03T12:03:00;6.40;;;2.43;;
1885;SDS011;943;51.568;6.998;2022-09-03T12:13:45;7.13;;;1.90;;
1885;SDS011;943;51.568;6.998;2022-09-03T12:20:42;3.33;;;1.70;;
1885;SDS011;943;51.568;6.998;2022-09-03T12:23:43;4.10;;;2.00;;
1885;SDS011;943;51.568;6.998;2022-09-03T12:26:24;3.80;;;1.73;;
1885;SDS011;943;51.568;6.998;2022-09-03T12:28:56;2.50;;;1.80;;
1885;SDS011;943;51.568;6.998;2022-09-03T12:31:27;3.67;;;1.93;;
1885;SDS011;943;51.568;6.998;2022-09-03T12:34:18;3.73;;;1.90;;
1885;SDS011;943;51.568;6.998;2022-09-03T12:36:48;3.70;;;2.10;;
1885;SDS011;943;51.568;6.998;2022-09-03T12:39:21;4.47;;;2.00;;
1885;SDS011;943;51.568;6.998;2022-09-03T12:42:22;3.27;;;2.47;;
1885;SDS011;943;51.568;6.998;2022-09-03T12:45:06;5.20;;;2.00;;
1885;SDS011;943;51.568;6.998;2022-09-03T12:47:38;3.17;;;1.80;;
1885;SDS011;943;51.568;6.998;2022-09-03T12:50:09;6.80;;;2.50;;
1885;SDS011;943;51.568;6.998;2022-09-03T12:52:46;4.80;;;2.00;;
1885;SDS011;943;51.568;6.998;2022-09-03T12:55:35;2.63;;;1.93;;
1885;SDS011;943;51.568;6.998;2022-09-03T12:58:33;3.13;;;2.40;;
1885;SDS011;943;51.568;6.998;2022-09-03T13:01:52;3.47;;;1.93;;
1885;SDS011;943;51.568;6.998;2022-09-03T13:04:32;4.80;;;2.00;;
1885;SDS011;943;51.568;6.998;2022-09-03T13:07:06;2.40;;;1.67;;
1885;SDS011;943;51.568;6.998;2022-09-03T13:10:04;5.03;;;2.27;;
1885;SDS011;943;51.568;6.998;2022-09-03T13:12:57;3.70;;;1.80;;
1885;SDS011;943;51.568;6.998;2022-09-03T13:15:41;6.90;;;1.83;;
1885;SDS011;943;51.568;6.998;2022-09-03T13:22:55;3.50;;;2.17;;
1885;SDS011;943;51.568;6.998;2022-09-03T13:39:23;5.30;;;2.20;;
1885;SDS011;943;51.568;6.998;2022-09-03T13:42:19;2.57;;;1.73;;
1885;SDS011;943;51.568;6.998;2022-09-03T13:48:15;4.40;;;2.37;;
1885;SDS011;943;51.568;6.998;2022-09-03T13:55:03;5.47;;;2.77;;
1885;SDS011;943;51.568;6.998;2022-09-03T14:01:38;3.43;;;1.77;;
1885;SDS011;943;51.568;6.998;2022-09-03T14:04:39;3.20;;;2.20;;
1885;SDS011;943;51.568;6.998;2022-09-03T14:10:26;2.57;;;1.77;;
1885;SDS011;943;51.568;6.998;2022-09-03T14:17:09;2.87;;;2.30;;
1885;SDS011;943;51.568;6.998;2022-09-03T14:20:05;3.00;;;2.20;;
1885;SDS011;943;51.568;6.998;2022-09-03T14:23:43;5.00;;;2.70;;
1885;SDS011;943;51.568;6.998;2022-09-03T14:26:48;3.17;;;2.00;;
1885;SDS011;943;51.568;6.998;2022-09-03T14:29:29;4.20;;;2.47;;
1885;SDS011;943;51.568;6.998;2022-09-03T14:38:30;3.13;;;2.70;;
1885;SDS011;943;51.568;6.998;2022-09-03T14:48:20;4.07;;;2.37;;
1885;SDS011;943;51.568;6.998;2022-09-03T14:58:23;3.10;;;2.43;;
1885;SDS011;943;51.568;6.998;2022-09-03T15:01:36;3.63;;;2.20;;
1885;SDS011;943;51.568;6.998;2022-09-03T15:07:54;4.00;;;2.50;;
1885;SDS011;943;51.568;6.998;2022-09-03T15:10:46;2.97;;;2.30;;
1885;SDS011;943;51.568;6.998;2022-09-03T15:13:46;3.27;;;2.30;;
1885;SDS011;943;51.568;6.998;2022-09-03T15:20:18;4.60;;;2.60;;
1885;SDS011;943;51.568;6.998;2022-09-03T15:26:47;4.10;;;3.00;;
1885;SDS011;943;51.568;6.998;2022-09-03T15:30:13;3.17;;;2.73;;
1885;SDS011;943;51.568;6.998;2022-09-03T15:44:25;3.67;;;3.00;;
1885;SDS011;943;51.568;6.998;2022-09-03T15:47:12;3.00;;;2.57;;
1885;SDS011;943;51.568;6.998;2022-09-03T15:51:32;6.67;;;2.83;;
1885;SDS011;943;51.568;6.998;2022-09-03T15:53:51;5.27;;;3.30;;
1885;SDS011;943;51.568;6.998;2022-09-03T15:57:04;3.03;;;2.73;;
1885;SDS011;943;51.568;6.998;2022-09-03T16:08:57;3.50;;;3.20;;
1885;SDS011;943;51.568;6.998;2022-09-03T16:11:41;4.50;;;3.17;;
1885;SDS011;943;51.568;6.998;2022-09-03T16:15:05;3.80;;;2.60;;
1885;SDS011;943;51.568;6.998;2022-09-03T16:18:52;4.13;;;3.00;;
1885;SDS011;943;51.568;6.998;2022-09-03T16:25:49;4.97;;;2.80;;
1885;SDS011;943;51.568;6.998;2022-09-03T16:48:44;3.70;;;2.73;;
1885;SDS011;943;51.568;6.998;2022-09-03T17:16:14;4.87;;;2.90;;
1885;SDS011;943;51.568;6.998;2022-09-03T17:19:42;5.40;;;2.90;;
1885;SDS011;943;51.568;6.998;2022-09-03T17:26:20;3.80;;;2.67;;
1885;SDS011;943;51.568;6.998;2022-09-03T17:42:26;3.10;;;2.60;;
1885;SDS011;943;51.568;6.998;2022-09-03T17:48:29;6.63;;;2.73;;
1885;SDS011;943;51.568;6.998;2022-09-03T17:51:57;4.50;;;2.47;;
1885;SDS011;943;51.568;6.998;2022-09-03T17:54:56;3.50;;;2.70;;
1885;SDS011;943;51.568;6.998;2022-09-03T17:57:46;3.33;;;2.73;;
1885;SDS011;943;51.568;6.998;2022-09-03T18:07:29;3.80;;;2.80;;
1885;SDS011;943;51.568;6.998;2022-09-03T18:20:16;2.83;;;2.10;;
1885;SDS011;943;51.568;6.998;2022-09-03T18:26:59;4.97;;;2.87;;
1885;SDS011;943;51.568;6.998;2022-09-03T18:30:11;5.00;;;3.30;;
1885;SDS011;943;51.568;6.998;2022-09-03T18:33:00;3.90;;;3.27;;
1885;SDS011;943;51.568;6.998;2022-09-03T18:35:47;4.23;;;3.17;;
1885;SDS011;943;51.568;6.998;2022-09-03T18:38:34;3.10;;;2.20;;
1885;SDS011;943;51.568;6.998;2022-09-03T18:41:28;3.20;;;2.60;;
1885;SDS011;943;51.568;6.998;2022-09-03T18:45:43;6.50;;;2.93;;
1885;SDS011;943;51.568;6.998;2022-09-03T18:49:12;3.70;;;3.30;;
1885;SDS011;943;51.568;6.998;2022-09-03T18:52:41;3.70;;;3.00;;
1885;SDS011;943;51.568;6.998;2022-09-03T19:03:06;5.20;;;3.90;;
1885;SDS011;943;51.568;6.998;2022-09-03T19:06:26;3.73;;;2.80;;
1885;SDS011;943;51.568;6.998;2022-09-03T19:13:22;4.13;;;3.10;;
1885;SDS011;943;51.568;6.998;2022-09-03T19:23:12;4.90;;;3.00;;
1885;SDS011;943;51.568;6.998;2022-09-03T19:26:03;3.40;;;2.57;;
1885;SDS011;943;51.568;6.998;2022-09-03T19:36:40;4.00;;;3.23;;
1885;SDS011;943;51.568;6.998;2022-09-03T19:44:29;4.37;;;3.20;;
1885;SDS011;943;51.568;6.998;2022-09-03T19:51:07;3.30;;;2.60;;
1885;SDS011;943;51.568;6.998;2022-09-03T19:54:07;4.10;;;3.10;;
1885;SDS011;943;51.568;6.998;2022-09-03T19:56:54;4.67;;;3.30;;
1885;SDS011;943;51.568;6.998;2022-09-03T19:59:43;3.60;;;3.00;;
1885;SDS011;943;51.568;6.998;2022-09-03T20:02:34;5.10;;;2.80;;
1885;SDS011;943;51.568;6.998;2022-09-03T20:05:23;4.37;;;2.63;;
1885;SDS011;943;51.568;6.998;2022-09-03T20:08:11;7.23;;;3.67;;
1885;SDS011;943;51.568;6.998;2022-09-03T20:11:01;3.80;;;3.07;;
1885;SDS011;943;51.568;6.998;2022-09-03T20:13:36;4.50;;;2.60;;
1885;SDS011;943;51.568;6.998;2022-09-03T20:16:38;3.93;;;3.20;;
1885;SDS011;943;51.568;6.998;2022-09-03T20:19:46;4.70;;;3.60;;
1885;SDS011;943;51.568;6.998;2022-09-03T20:25:43;5.17;;;3.93;;
1885;SDS011;943;51.568;6.998;2022-09-03T20:41:43;4.60;;;3.03;;
1885;SDS011;943;51.568;6.998;2022-09-03T21:00:11;3.50;;;2.67;;
1885;SDS011;943;51.568;6.998;2022-09-03T21:06:38;4.30;;;2.73;;
1885;SDS011;943;51.568;6.998;2022-09-03T21:32:16;4.87;;;3.13;;
1885;SDS011;943;51.568;6.998;2022-09-03T21:35:12;3.80;;;2.97;;
1885;SDS011;943;51.568;6.998;2022-09-03T21:40:44;3.43;;;2.83;;
1885;SDS011;943;51.568;6.998;2022-09-03T21:44:16;4.97;;;3.60;;
1885;SDS011;943;51.568;6.998;2022-09-03T21:47:13;3.07;;;2.40;;
1885;SDS011;943;51.568;6.998;2022-09-03T21:52:56;4.47;;;3.17;;
1885;SDS011;943;51.568;6.998;2022-09-03T21:55:52;4.10;;;3.37;;
1885;SDS011;943;51.568;6.998;2022-09-03T21:59:03;6.13;;;4.43;;
1885;SDS011;943;51.568;6.998;2022-09-03T22:02:44;5.07;;;4.03;;
1885;SDS011;943;51.568;6.998;2022-09-03T22:05:15;5.10;;;4.20;;
1885;SDS011;943;51.568;6.998;2022-09-03T22:07:56;4.13;;;3.60;;
1885;SDS011;943;51.568;6.998;2022-09-03T22:10:50;4.90;;;4.10;;
1885;SDS011;943;51.568;6.998;2022-09-03T22:16:38;4.80;;;3.90;;
1885;SDS011;943;51.568;6.998;2022-09-03T22:19:30;4.47;;;3.03;;
1885;SDS011;943;51.568;6.998;2022-09-03T22:22:03;6.07;;;3.30;;
1885;SDS011;943;51.568;6.998;2022-09-03T22:25:12;5.50;;;4.23;;
1885;SDS011;943;51.568;6.998;2022-09-03T22:28:29;5.70;;;3.10;;
1885;SDS011;943;51.568;6.998;2022-09-03T22:32:13;4.80;;;3.60;;
1885;SDS011;943;51.568;6.998;2022-09-03T22:41:36;3.60;;;2.80;;
1885;SDS011;943;51.568;6.998;2022-09-03T22:48:22;4.70;;;3.53;;
1885;SDS011;943;51.568;6.998;2022-09-03T22:51:26;4.57;;;3.23;;
1885;SDS011;943;51.568;6.998;2022-09-03T22:57:37;4.40;;;3.70;;
1885;SDS011;943;51.568;6.998;2022-09-03T23:00:22;4.53;;;3.00;;
1885;SDS011;943;51.568;6.998;2022-09-03T23:02:58;4.53;;;3.33;;
1885;SDS011;943;51.568;6.998;2022-09-03T23:09:24;4.73;;;3.27;;
1885;SDS011;943;51.568;6.998;2022-09-03T23:11:44;4.10;;;3.53;;
1885;SDS011;943;51.568;6.998;2022-09-03T23:14:37;4.50;;;3.40;;
1885;SDS011;943;51.568;6.998;2022-09-03T23:17:22;6.23;;;3.47;;
1885;SDS011;943;51.568;6.998;2022-09-03T23:20:15;7.10;;;3.50;;
1885;SDS011;943;51.568;6.998;2022-09-03T23:22:55;5.33;;;3.63;;
1885;SDS011;943;51.568;6.998;2022-09-03T23:25:44;4.20;;;3.20;;
1885;SDS011;943;51.568;6.998;2022-09-03T23:28:50;5.83;;;4.03;;
1885;SDS011;943;51.568;6.998;2022-09-03T23:31:41;5.93;;;3.53;;
1885;SDS011;943;51.568;6.998;2022-09-03T23:34:10;6.00;;;4.87;;
1885;SDS011;943;51.568;6.998;2022-09-03T23:53:11;3.60;;;3.13;;
